Time,TemperatureF,DewpointF,PressureIn,WindDirection,WindDirectionDegrees,WindSpeedMPH,WindSpeedGustMPH,Humidity,HourlyPrecipIn,Conditions,Clouds,dailyrainin,SoftwareType,DateUTC
2013-06-14 00:12:00,52.2,48.0,30.09,NNW,332,3.0,5.0,84,0.00,,,0.00,weatherlink.com 1.10,2013-06-14 07:12:00,
2013-06-14 00:27:00,52.5,48.0,30.09,NNW,329,3.0,7.0,84,0.00,,,0.00,weatherlink.com 1.10,2013-06-14 07:27:00,
2013-06-14 00:42:00,52.9,48.0,30.08,NNW,341,5.0,9.0,83,0.00,,,0.00,weatherlink.com 1.10,2013-06-14 07:42:00,
2013-06-14 00:57:00,53.2,48.0,30.07,NW,317,0.0,8.0,82,0.00,,,0.00,weatherlink.com 1.10,2013-06-14 07:57:00,
2013-06-14 01:12:00,52.8,47.0,30.07,NW,317,0.0,0.0,82,0.00,,,0.00,weatherlink.com 1.10,2013-06-14 08:12:00,
2013-06-14 01:27:00,52.6,48.0,30.07,NNW,334,3.0,6.0,83,0.00,,,0.00,weatherlink.com 1.10,2013-06-14 08:27:00,
2013-06-14 01:42:00,52.6,48.0,30.06,NW,321,3.0,6.0,84,0.00,,,0.00,weatherlink.com 1.10,2013-06-14 08:42:00,
2013-06-14 01:57:00,52.8,48.0,30.06,NNW,328,3.0,5.0,83,0.00,,,0.00,weatherlink.com 1.10,2013-06-14 08:57:00,
2013-06-14 02:12:00,53.2,48.0,30.05,NW,323,0.0,4.0,82,0.00,,,0.00,weatherlink.com 1.10,2013-06-14 09:12:00,
2013-06-14 02:27:00,52.6,48.0,30.05,NW,323,1.0,3.0,84,0.00,,,0.00,weatherlink.com 1.10,2013-06-14 09:27:00,
2013-06-14 02:42:00,51.9,48.0,30.05,NW,323,0.0,2.0,86,0.00,,,0.00,weatherlink.com 1.10,2013-06-14 09:42:00,
2013-06-14 02:57:00,52.6,48.0,30.05,NW,322,0.0,4.0,85,0.00,,,0.00,weatherlink.com 1.10,2013-06-14 09:57:00,
2013-06-14 03:12:00,52.0,48.0,30.04,NW,322,2.0,4.0,86,0.00,,,0.00,weatherlink.com 1.10,2013-06-14 10:12:00,
2013-06-14 03:27:00,51.7,48.0,30.04,NW,322,0.0,4.0,87,0.00,,,0.00,weatherlink.com 1.10,2013-06-14 10:27:00,
2013-06-14 03:42:00,52.6,48.0,30.04,NW,321,2.0,4.0,85,0.00,,,0.00,weatherlink.com 1.10,2013-06-14 10:42:00,
2013-06-14 03:57:00,52.5,48.0,30.03,NW,321,0.0,1.0,85,0.00,,,0.00,weatherlink.com 1.10,2013-06-14 10:57:00,
2013-06-14 04:12:00,52.6,48.0,30.03,NW,321,1.0,3.0,85,0.00,,,0.00,weatherlink.com 1.10,2013-06-14 11:12:00,
2013-06-14 04:27:00,52.8,48.0,30.02,NW,321,2.0,3.0,84,0.00,,,0.00,weatherlink.com 1.10,2013-06-14 11:27:00,
2013-06-14 04:42:00,53.9,48.0,30.02,NW,321,3.0,5.0,81,0.00,,,0.00,weatherlink.com 1.10,2013-06-14 11:42:00,
2013-06-14 04:57:00,53.3,48.0,30.02,NW,321,0.0,3.0,82,0.00,,,0.00,weatherlink.com 1.10,2013-06-14 11:57:00,
2013-06-14 05:12:00,52.5,48.0,30.02,NW,321,0.0,1.0,85,0.00,,,0.00,weatherlink.com 1.10,2013-06-14 12:12:00,
2013-06-14 05:27:00,52.0,48.0,30.02,NW,321,0.0,1.0,86,0.00,,,0.00,weatherlink.com 1.10,2013-06-14 12:27:00,
2013-06-14 05:42:00,52.2,48.0,30.02,NW,321,0.0,1.0,85,0.00,,,0.00,weatherlink.com 1.10,2013-06-14 12:42:00,
2013-06-14 05:57:00,52.3,48.0,30.02,NW,323,0.0,1.0,86,0.00,,,0.00,weatherlink.com 1.10,2013-06-14 12:57:00,
2013-06-14 06:12:00,51.9,48.0,30.02,NW,323,0.0,1.0,87,0.00,,,0.00,weatherlink.com 1.10,2013-06-14 13:12:00,
2013-06-14 06:27:00,51.7,48.0,30.02,NW,323,0.0,0.0,87,0.00,,,0.00,weatherlink.com 1.10,2013-06-14 13:27:00,
2013-06-14 06:42:00,51.3,48.0,30.02,NW,323,0.0,0.0,87,0.00,,,0.00,weatherlink.com 1.10,2013-06-14 13:42:00,
2013-06-14 06:57:00,51.0,48.0,30.01,NNW,334,0.0,0.0,89,0.00,,,0.00,weatherlink.com 1.10,2013-06-14 13:57:00,
2013-06-14 07:12:00,51.7,49.0,30.01,WNW,286,0.0,1.0,89,0.00,,,0.00,weatherlink.com 1.10,2013-06-14 14:12:00,
2013-06-14 07:27:00,53.6,50.0,30.01,WNW,286,0.0,1.0,87,0.00,,,0.00,weatherlink.com 1.10,2013-06-14 14:27:00,
2013-06-14 07:42:00,55.4,51.0,30.01,WNW,288,0.0,1.0,86,0.00,,,0.00,weatherlink.com 1.10,2013-06-14 14:42:00,
2013-06-14 07:57:00,58.1,53.0,30.01,WNW,287,0.0,1.0,82,0.00,,,0.00,weatherlink.com 1.10,2013-06-14 14:57:00,
2013-06-14 08:12:00,58.9,53.0,30.00,WNW,288,0.0,1.0,80,0.00,,,0.00,weatherlink.com 1.10,2013-06-14 15:12:00,
2013-06-14 08:27:00,59.0,52.0,30.00,South,190,0.0,2.0,78,0.00,,,0.00,weatherlink.com 1.10,2013-06-14 15:27:00,
2013-06-14 08:42:00,59.5,53.0,30.00,WSW,244,0.0,1.0,79,0.00,,,0.00,weatherlink.com 1.10,2013-06-14 15:42:00,
2013-06-14 08:58:00,61.2,54.0,30.00,NW,313,1.0,4.0,76,0.00,,,0.00,weatherlink.com 1.10,2013-06-14 15:58:00,
2013-06-14 09:13:00,61.2,53.0,30.00,NNW,330,4.0,5.0,75,0.00,,,0.00,weatherlink.com 1.10,2013-06-14 16:13:00,
2013-06-14 09:28:00,61.0,53.0,30.00,NW,317,3.0,9.0,75,0.00,,,0.00,weatherlink.com 1.10,2013-06-14 16:28:00,
2013-06-14 09:43:00,61.6,53.0,30.00,NW,310,1.0,7.0,73,0.00,,,0.00,weatherlink.com 1.10,2013-06-14 16:43:00,
2013-06-14 09:58:00,62.0,54.0,30.00,West,281,4.0,5.0,74,0.00,,,0.00,weatherlink.com 1.10,2013-06-14 16:58:00,
2013-06-14 10:13:00,63.2,54.0,29.99,NW,315,7.0,8.0,72,0.00,,,0.00,weatherlink.com 1.10,2013-06-14 17:13:00,
2013-06-14 10:28:00,63.2,54.0,29.99,WNW,301,3.0,7.0,72,0.00,,,0.00,weatherlink.com 1.10,2013-06-14 17:28:00,
2013-06-14 10:43:00,62.9,53.0,29.98,NW,313,5.0,12.0,71,0.00,,,0.00,weatherlink.com 1.10,2013-06-14 17:43:00,
2013-06-14 10:58:00,63.7,54.0,29.98,NW,317,8.0,11.0,70,0.00,,,0.00,weatherlink.com 1.10,2013-06-14 17:58:00,
2013-06-14 11:13:00,63.1,54.0,29.98,NW,309,4.0,10.0,71,0.00,,,0.00,weatherlink.com 1.10,2013-06-14 18:13:00,
2013-06-14 11:28:00,63.5,54.0,29.98,NNW,337,10.0,14.0,70,0.00,,,0.00,weatherlink.com 1.10,2013-06-14 18:28:00,
2013-06-14 11:43:00,63.2,53.0,29.98,WNW,296,5.0,14.0,69,0.00,,,0.00,weatherlink.com 1.10,2013-06-14 18:43:00,
2013-06-14 11:58:00,62.3,53.0,29.98,NNW,331,5.0,15.0,71,0.00,,,0.00,weatherlink.com 1.10,2013-06-14 18:58:00,
2013-06-14 12:13:00,62.9,53.0,29.98,NNW,332,5.0,15.0,71,0.00,,,0.00,weatherlink.com 1.10,2013-06-14 19:13:00,
2013-06-14 12:28:00,63.7,53.0,29.98,WNW,292,0.0,12.0,68,0.00,,,0.00,weatherlink.com 1.10,2013-06-14 19:28:00,
2013-06-14 12:43:00,64.0,54.0,29.97,West,261,5.0,14.0,69,0.00,,,0.00,weatherlink.com 1.10,2013-06-14 19:43:00,
2013-06-14 12:58:00,62.4,52.0,29.97,NNW,337,8.0,17.0,70,0.00,,,0.00,weatherlink.com 1.10,2013-06-14 19:58:00,
2013-06-14 13:13:00,62.7,53.0,29.96,NW,318,4.0,18.0,70,0.00,,,0.00,weatherlink.com 1.10,2013-06-14 20:13:00,
2013-06-14 13:28:00,64.7,54.0,29.96,NW,318,5.0,12.0,68,0.00,,,0.00,weatherlink.com 1.10,2013-06-14 20:28:00,
2013-06-14 13:43:00,64.8,54.0,29.96,NW,304,6.0,13.0,68,0.00,,,0.00,weatherlink.com 1.10,2013-06-14 20:43:00,
2013-06-14 13:58:00,62.6,53.0,29.95,NW,321,4.0,15.0,71,0.00,,,0.00,weatherlink.com 1.10,2013-06-14 20:58:00,
2013-06-14 14:13:00,61.3,53.0,29.95,NW,319,11.0,17.0,74,0.00,,,0.00,weatherlink.com 1.10,2013-06-14 21:13:00,
2013-06-14 14:28:00,62.4,53.0,29.95,NNW,340,4.0,15.0,71,0.00,,,0.00,weatherlink.com 1.10,2013-06-14 21:28:00,
2013-06-14 14:43:00,63.5,53.0,29.94,NW,307,7.0,14.0,69,0.00,,,0.00,weatherlink.com 1.10,2013-06-14 21:43:00,
2013-06-14 14:58:00,64.8,54.0,29.93,NW,309,7.0,15.0,67,0.00,,,0.00,weatherlink.com 1.10,2013-06-14 21:58:00,
2013-06-14 15:13:00,66.0,53.0,29.93,North,360,7.0,12.0,63,0.00,,,0.00,weatherlink.com 1.10,2013-06-14 22:13:00,
2013-06-14 15:28:00,63.9,53.0,29.93,NNW,327,7.0,18.0,67,0.00,,,0.00,weatherlink.com 1.10,2013-06-14 22:28:00,
2013-06-14 15:43:00,63.1,51.0,29.92,North,355,14.0,17.0,64,0.00,,,0.00,weatherlink.com 1.10,2013-06-14 22:43:00,
2013-06-14 15:58:00,62.9,53.0,29.92,NW,304,7.0,17.0,69,0.00,,,0.00,weatherlink.com 1.10,2013-06-14 22:58:00,
2013-06-14 16:13:00,62.7,52.0,29.92,NW,309,4.0,14.0,67,0.00,,,0.00,weatherlink.com 1.10,2013-06-14 23:13:00,
2013-06-14 16:28:00,63.2,52.0,29.91,NW,309,5.0,12.0,67,0.00,,,0.00,weatherlink.com 1.10,2013-06-14 23:28:00,
2013-06-14 16:43:00,62.9,52.0,29.91,NW,304,5.0,12.0,68,0.00,,,0.00,weatherlink.com 1.10,2013-06-14 23:43:00,
2013-06-14 16:58:00,62.1,52.0,29.91,NW,314,5.0,13.0,69,0.00,,,0.00,weatherlink.com 1.10,2013-06-14 23:58:00,
2013-06-14 17:13:00,62.4,52.0,29.90,NW,312,6.0,11.0,69,0.00,,,0.00,weatherlink.com 1.10,2013-06-15 00:13:00,
2013-06-14 17:28:00,62.9,52.0,29.89,NW,319,3.0,12.0,68,0.00,,,0.00,weatherlink.com 1.10,2013-06-15 00:28:00,
2013-06-14 17:43:00,62.0,52.0,29.89,NW,321,4.0,15.0,69,0.00,,,0.00,weatherlink.com 1.10,2013-06-15 00:43:00,
2013-06-14 17:59:00,60.9,51.0,29.89,WNW,300,4.0,17.0,71,0.00,,,0.00,weatherlink.com 1.10,2013-06-15 00:59:00,
2013-06-14 18:14:00,59.5,51.0,29.89,NNW,331,8.0,15.0,74,0.00,,,0.00,weatherlink.com 1.10,2013-06-15 01:14:00,
2013-06-14 18:29:00,58.7,51.0,29.89,NW,306,7.0,14.0,76,0.00,,,0.00,weatherlink.com 1.10,2013-06-15 01:29:00,
2013-06-14 18:44:00,58.3,51.0,29.89,NNW,331,5.0,17.0,77,0.00,,,0.00,weatherlink.com 1.10,2013-06-15 01:44:00,
2013-06-14 18:59:00,57.6,51.0,29.89,NNW,333,4.0,14.0,78,0.00,,,0.00,weatherlink.com 1.10,2013-06-15 01:59:00,
2013-06-14 19:14:00,57.5,51.0,29.89,NNW,333,7.0,13.0,79,0.00,,,0.00,weatherlink.com 1.10,2013-06-15 02:14:00,
2013-06-14 19:29:00,57.0,51.0,29.89,NW,309,7.0,14.0,80,0.00,,,0.00,weatherlink.com 1.10,2013-06-15 02:29:00,
2013-06-14 19:44:00,56.6,51.0,29.89,NW,306,4.0,12.0,81,0.00,,,0.00,weatherlink.com 1.10,2013-06-15 02:44:00,
2013-06-14 19:59:00,55.6,51.0,29.90,NW,324,5.0,11.0,83,0.00,,,0.00,weatherlink.com 1.10,2013-06-15 02:59:00,
2013-06-14 20:14:00,55.0,51.0,29.90,NW,320,4.0,10.0,85,0.00,,,0.00,weatherlink.com 1.10,2013-06-15 03:14:00,
2013-06-14 20:29:00,54.1,50.0,29.90,NW,321,4.0,8.0,86,0.00,,,0.00,weatherlink.com 1.10,2013-06-15 03:29:00,
2013-06-14 20:44:00,53.5,50.0,29.90,NW,313,4.0,8.0,88,0.00,,,0.00,weatherlink.com 1.10,2013-06-15 03:44:00,
2013-06-14 20:59:00,52.9,50.0,29.90,NNW,336,4.0,6.0,89,0.00,,,0.00,weatherlink.com 1.10,2013-06-15 03:59:00,
2013-06-14 21:14:00,52.5,50.0,29.90,NW,308,4.0,5.0,90,0.00,,,0.00,weatherlink.com 1.10,2013-06-15 04:14:00,
2013-06-14 21:29:00,52.0,50.0,29.90,NNW,331,1.0,4.0,91,0.00,,,0.00,weatherlink.com 1.10,2013-06-15 04:29:00,
2013-06-14 21:44:00,51.7,50.0,29.90,NW,323,0.0,3.0,92,0.00,,,0.00,weatherlink.com 1.10,2013-06-15 04:44:00,
2013-06-14 21:59:00,51.3,49.0,29.91,NW,323,0.0,0.0,92,0.00,,,0.00,weatherlink.com 1.10,2013-06-15 04:59:00,
2013-06-14 22:14:00,50.8,49.0,29.91,NW,323,0.0,0.0,92,0.00,,,0.00,weatherlink.com 1.10,2013-06-15 05:14:00,
2013-06-14 22:29:00,50.4,49.0,29.91,NW,323,0.0,1.0,93,0.00,,,0.00,weatherlink.com 1.10,2013-06-15 05:29:00,
2013-06-14 22:44:00,49.8,48.0,29.91,NW,323,0.0,0.0,93,0.00,,,0.00,weatherlink.com 1.10,2013-06-15 05:44:00,
2013-06-14 22:59:00,48.4,45.0,29.91,NNW,338,0.0,1.0,89,0.00,,,0.00,weatherlink.com 1.10,2013-06-15 05:59:00,
2013-06-14 23:14:00,48.1,45.0,29.91,NNW,338,1.0,1.0,90,0.00,,,0.00,weatherlink.com 1.10,2013-06-15 06:14:00,
2013-06-14 23:29:00,47.8,45.0,29.91,NNW,338,0.0,1.0,90,0.00,,,0.00,weatherlink.com 1.10,2013-06-15 06:29:00,
2013-06-14 23:44:00,47.7,45.0,29.91,NNW,338,0.0,3.0,91,0.00,,,0.00,weatherlink.com 1.10,2013-06-15 06:44:00,
2013-06-14 23:59:00,47.7,45.0,29.90,NNW,338,0.0,2.0,91,0.00,,,0.00,weatherlink.com 1.10,2013-06-15 06:59:00,